Temp: 13.5°C   Hum: 84%
  Wind: 0.9mph   Dir: WNW (282°)
  Rain: 0.0mm Rate: 0.0mm/hr
  Pressure: 1007.5mb

Historic data

Bath Spa Weather Station Historical Data
Daily Summary for January 21, 2022 Units:  Metric    English   Both
Daily Weekly Monthly Yearly Custom
  High: Low: Average:
Temperature: 3.8 °C -4.6 °C 0.4 °C
Dew Point: 2.1 °C -5.7 °C -1.3 °C
Humidity: 92.2% 83% 89%
Wind Speed: 4.7km/h 0km/h 0.3km/h
Wind Gust: 9.7km/h - -
Wind- - WSW
Pressure: 1042.2 hPa 1039.5 hPa -
Precipitation: 0.25 mm    
Historical Graphs
 
 
Tabular Data for January 21, 2022
Time Temperature Dew Point Pressure Wind Wind Speed Wind Gust Humidity Rainfall Rate (Hourly) solar
00:09 -2.4 °C -4.1 °C 1041.9 hPa Calm     88% 0 mm 0 W/m2
00:14 -2.4 °C -4.1 °C 1041.9 hPa Calm     88% 0 mm 0 W/m2
00:19 -2.4 °C -4.1 °C 1041.9 hPa Calm     89% 0 mm 0 W/m2
00:24 -2.6 °C -4.2 °C 1041.9 hPa Calm     89% 0 mm 0 W/m2
00:29 -2.6 °C -4.2 °C 1041.9 hPa Calm     89% 0 mm 0 W/m2
00:34 -2.6 °C -4.2 °C 1041.9 hPa Calm     89% 0 mm 0 W/m2
00:39 -2.7 °C -4.3 °C 1041.9 hPa Calm     89% 0 mm 0 W/m2
00:44 -2.7 °C -4.3 °C 1041.9 hPa Calm     89% 0 mm 0 W/m2
00:49 -2.7 °C -4.3 °C 1041.9 hPa Calm   1.6 km/h 89% 0 mm 0 W/m2
00:54 -2.7 °C -4.2 °C 1041.9 hPa Calm     89% 0 mm 0 W/m2
00:59 -2.7 °C -4.3 °C 1041.9 hPa Calm   1.6 km/h 89% 0 mm 0 W/m2
01:04 -2.7 °C -4.3 °C 1041.9 hPa Calm   1.6 km/h 89% 0 mm 0 W/m2
01:09 -2.7 °C -4.3 °C 1041.9 hPa Calm     89% 0 mm 0 W/m2
01:14 -2.8 °C -4.4 °C 1041.9 hPa Calm     89% 0 mm 0 W/m2
01:19 -2.9 °C -4.5 °C 1041.9 hPa Calm     89% 0 mm 0 W/m2
01:24 -2.9 °C -4.5 °C 1041.9 hPa Calm     89% 0 mm 0 W/m2
01:29 -3 °C -4.6 °C 1041.9 hPa Calm     89% 0 mm 0 W/m2
01:34 -3 °C -4.4 °C 1041.9 hPa Calm     89.8% 0 mm 0 W/m2
01:39 -3 °C -4.4 °C 1041.9 hPa Calm     90% 0 mm 0 W/m2
01:44 -3 °C -4.4 °C 1041.5 hPa Calm     90% 0 mm 0 W/m2
01:49 -3.1 °C -4.5 °C 1041.9 hPa Calm     90% 0 mm 0 W/m2
01:54 -3.2 °C -4.6 °C 1041.5 hPa Calm     90% 0 mm 0 W/m2
01:59 -3.2 °C -4.6 °C 1041.5 hPa Calm   1.6 km/h 90% 0 mm 0 W/m2
02:04 -3.1 °C -4.5 °C 1041.5 hPa Calm   1.6 km/h 90% 0 mm 0 W/m2
02:09 -3.2 °C -4.6 °C 1041.5 hPa Calm     90% 0 mm 0 W/m2
02:14 -3.2 °C -4.6 °C 1041.5 hPa Calm     90% 0 mm 0 W/m2
02:19 -3.2 °C -4.6 °C 1041.5 hPa Calm     90% 0 mm 0 W/m2
02:24 -3.2 °C -4.6 °C 1041.5 hPa Calm   1.6 km/h 90% 0 mm 0 W/m2
02:29 -3.2 °C -4.6 °C 1041.5 hPa Calm   1.6 km/h 90% 0 mm 0 W/m2
02:34 -3.3 °C -4.7 °C 1041.5 hPa Calm     90% 0 mm 0 W/m2
02:39 -3.4 °C -4.8 °C 1041.5 hPa North 0.3 km/h 1.6 km/h 90% 0 mm 0 W/m2
02:44 -3.4 °C -4.8 °C 1041.5 hPa Calm   1.6 km/h 90% 0 mm 0 W/m2
02:49 -3.4 °C -4.8 °C 1041.5 hPa Calm     90% 0 mm 0 W/m2
02:54 -3.3 °C -4.8 °C 1041.5 hPa North 0.3 km/h 1.6 km/h 90% 0 mm 0 W/m2
02:59 -3.4 °C -4.8 °C 1041.5 hPa Calm     90% 0 mm 0 W/m2
03:03 -3.4 °C -4.8 °C 1041.5 hPa North 0.3 km/h 1.6 km/h 90% 0 mm 0 W/m2
03:09 -3.4 °C -4.8 °C 1041.5 hPa North 0.8 km/h 3.2 km/h 90% 0 mm 0 W/m2
03:14 -3.4 °C -4.8 °C 1041.5 hPa North 0.3 km/h 3.2 km/h 90% 0 mm 0 W/m2
03:19 -3.4 °C -4.7 °C 1041.5 hPa North 0.3 km/h 1.6 km/h 91% 0 mm 0 W/m2
03:24 -3.4 °C -4.7 °C 1041.5 hPa Calm   1.6 km/h 91% 0 mm 0 W/m2
03:29 -3.4 °C -4.7 °C 1041.5 hPa Calm     90.8% 0 mm 0 W/m2
03:34 -3.5 °C -4.9 °C 1041.5 hPa Calm     90.2% 0 mm 0 W/m2
03:39 -3.5 °C -4.8 °C 1041.5 hPa Calm     91% 0 mm 0 W/m2
03:44 -3.6 °C -4.9 °C 1041.5 hPa Calm     91% 0 mm 0 W/m2
03:49 -3.6 °C -4.9 °C 1041.5 hPa Calm     91% 0 mm 0 W/m2
03:54 -3.6 °C -4.9 °C 1041.5 hPa Calm   1.6 km/h 91% 0 mm 0 W/m2
03:59 -3.7 °C -5 °C 1041.5 hPa North 0.3 km/h 1.6 km/h 91% 0 mm 0 W/m2
04:04 -3.8 °C -5.1 °C 1041.5 hPa North 1.9 km/h 3.2 km/h 91% 0 mm 0 W/m2
04:09 -3.8 °C -5.2 °C 1041.5 hPa North 0.8 km/h 3.2 km/h 91% 0 mm 0 W/m2
04:14 -3.8 °C -5.1 °C 1041.5 hPa North 1 km/h 3.2 km/h 91% 0 mm 0 W/m2
04:19 -3.8 °C -5.1 °C 1041.5 hPa Calm   1.6 km/h 91% 0 mm 0 W/m2
04:24 -3.8 °C -5.1 °C 1041.5 hPa Calm     91% 0 mm 0 W/m2
04:29 -3.8 °C -5.1 °C 1041.5 hPa Calm     91% 0 mm 0 W/m2
04:34 -3.8 °C -5.1 °C 1041.5 hPa Calm   1.6 km/h 91% 0 mm 0 W/m2
04:39 -3.8 °C -5.2 °C 1041.5 hPa Calm   1.6 km/h 91% 0 mm 0 W/m2
04:44 -4.1 °C -5.3 °C 1041.5 hPa Calm     91% 0 mm 0 W/m2
04:49 -4.1 °C -5.3 °C 1041.5 hPa Calm     91% 0 mm 0 W/m2
04:54 -4.2 °C -5.3 °C 1041.5 hPa Calm     91% 0 mm 0 W/m2
04:59 -4.1 °C -5.3 °C 1041.5 hPa Calm   1.6 km/h 91% 0 mm 0 W/m2
05:04 -4.2 °C -5.4 °C 1041.5 hPa Calm     91% 0 mm 0 W/m2
05:09 -4.2 °C -5.4 °C 1041.5 hPa Calm     91% 0 mm 0 W/m2
05:14 -4.2 °C -5.4 °C 1041.5 hPa Calm     91% 0 mm 0 W/m2
05:19 -4.3 °C -5.5 °C 1041.5 hPa Calm     91% 0 mm 0 W/m2
05:24 -4.3 °C -5.4 °C 1041.5 hPa Calm     91% 0 mm 0 W/m2
05:29 -4.2 °C -5.4 °C 1041.5 hPa Calm     91% 0 mm 0 W/m2
05:34 -4.2 °C -5.4 °C 1041.5 hPa Calm     91% 0 mm 0 W/m2
05:39 -4.2 °C -5.4 °C 1041.5 hPa Calm     91% 0 mm 0 W/m2
05:44 -4.3 °C -5.5 °C 1041.5 hPa Calm     91% 0 mm 0 W/m2
05:49 -4.3 °C -5.5 °C 1041.5 hPa Calm     91% 0 mm 0 W/m2
05:54 -4.3 °C -5.5 °C 1041.5 hPa Calm     91% 0 mm 0 W/m2
05:59 -4.3 °C -5.5 °C 1041.5 hPa Calm     91% 0 mm 0 W/m2
06:04 -4.3 °C -5.5 °C 1041.5 hPa Calm     91% 0 mm 0 W/m2
06:09 -4.3 °C -5.6 °C 1041.5 hPa Calm     91% 0 mm 0 W/m2
06:14 -4.4 °C -5.6 °C 1041.5 hPa Calm   1.6 km/h 91% 0 mm 0 W/m2
06:19 -4.4 °C -5.6 °C 1041.5 hPa Calm     91% 0 mm 0 W/m2
06:24 -4.4 °C -5.5 °C 1041.5 hPa Calm     91.8% 0 mm 0 W/m2
06:29 -4.6 °C -5.7 °C 1041.5 hPa Calm   1.6 km/h 92% 0 mm 0 W/m2
06:34 -4.6 °C -5.7 °C 1041.5 hPa Calm     92% 0 mm 0 W/m2
06:39 -4.5 °C -5.6 °C 1041.5 hPa Calm     92% 0 mm 0 W/m2
06:44 -4.4 °C -5.5 °C 1041.5 hPa Calm     92% 0 mm 0 W/m2
06:49 -4.4 °C -5.5 °C 1041.5 hPa Calm     92% 0 mm 0 W/m2
06:54 -4.3 °C -5.4 °C 1041.5 hPa Calm     92% 0 mm 0 W/m2
06:59 -4.2 °C -5.3 °C 1041.5 hPa Calm     92% 0 mm 0 W/m2
07:03 -3.9 °C -5 °C 1041.5 hPa Calm     92% 0 mm 0 W/m2
07:09 -4.1 °C -5.2 °C 1041.5 hPa Calm     92% 0 mm 0 W/m2
07:14 -4.2 °C -5.3 °C 1041.5 hPa Calm     92% 0 mm 0 W/m2
07:19 -4.2 °C -5.3 °C 1041.5 hPa Calm     92% 0 mm 0 W/m2
07:24 -4.2 °C -5.3 °C 1041.9 hPa Calm   1.6 km/h 92% 0 mm 0 W/m2
07:29 -4.1 °C -5.2 °C 1041.9 hPa Calm   1.6 km/h 92% 0 mm 0 W/m2
07:34 -3.8 °C -4.9 °C 1041.9 hPa North 0.3 km/h 1.6 km/h 92% 0 mm 0 W/m2
07:39 -3.7 °C -4.8 °C 1041.9 hPa Calm     92% 0 mm 0 W/m2
07:44 -3.6 °C -4.7 °C 1041.9 hPa Calm     92% 0 mm 0 W/m2
07:49 -3.3 °C -4.4 °C 1041.9 hPa Calm     92% 0 mm 0 W/m2
07:54 -2.7 °C -3.8 °C 1041.9 hPa Calm     92% 0 mm 0 W/m2
07:59 -2.2 °C -3.3 °C 1041.9 hPa Calm     92.2% 0 mm 0 W/m2
08:03 -2.4 °C -3.4 °C 1041.9 hPa Calm     92% 0 mm 0 W/m2
08:09 -3.2 °C -4.3 °C 1041.9 hPa Calm     92% 0 mm 5 W/m2
08:14 -3.4 °C -4.5 °C 1041.9 hPa Calm     92% 0 mm 7 W/m2
08:19 -3.6 °C -4.7 °C 1041.9 hPa Calm     92% 0 mm 11 W/m2
08:24 -3.7 °C -4.8 °C 1041.9 hPa Calm     92% 0 mm 12 W/m2
08:29 -3.1 °C -4.2 °C 1042.2 hPa Calm     92% 0 mm 19 W/m2
08:34 -3.2 °C -4.2 °C 1042.2 hPa Calm     92% 0 mm 23 W/m2
08:38 -3.2 °C -4.3 °C 1042.2 hPa Calm     92% 0 mm 23 W/m2
08:44 -3.3 °C -4.4 °C 1042.2 hPa Calm     92% 0 mm 26 W/m2
08:49 -3.4 °C -4.5 °C 1042.2 hPa Calm     92% 0 mm 32 W/m2
08:54 -3.4 °C -4.6 °C 1042.2 hPa Calm     92% 0 mm 35 W/m2
08:59 -3.7 °C -4.7 °C 1042.2 hPa Calm     92% 0 mm 40 W/m2
09:04 -3.6 °C -4.7 °C 1042.2 hPa Calm     92% 0 mm 49 W/m2
09:09 -3.5 °C -4.6 °C 1042.2 hPa Calm     92% 0 mm 51 W/m2
09:14 -3.4 °C -4.5 °C 1042.2 hPa Calm     92% 0 mm 51 W/m2
09:19 -3.2 °C -4.3 °C 1042.2 hPa Calm     92% 0 mm 54 W/m2
09:24 -2.9 °C -4.1 °C 1042.2 hPa Calm     92% 0 mm 54 W/m2
09:29 -2.8 °C -3.9 °C 1042.2 hPa Calm     92% 0 mm 58 W/m2
09:34 -2.7 °C -3.8 °C 1042.2 hPa Calm     92% 0 mm 63 W/m2
09:39 -2.6 °C -3.7 °C 1042.2 hPa Calm     92% 0 mm 70 W/m2
09:44 -2.4 °C -3.5 °C 1042.2 hPa Calm     92% 0 mm 74 W/m2
09:49 -2.3 °C -3.4 °C 1042.2 hPa Calm     92% 0 mm 74 W/m2
09:54 -2.2 °C -3.3 °C 1042.2 hPa Calm     92% 0 mm 83 W/m2
09:59 -2.1 °C -3.2 °C 1042.2 hPa Calm     92% 0 mm 90 W/m2
10:04 -1.9 °C -3 °C 1042.2 hPa Calm     92% 0 mm 88 W/m2
10:09 -1.8 °C -2.9 °C 1042.2 hPa Calm     92% 0 mm 107 W/m2
10:14 -1.7 °C -2.8 °C 1042.2 hPa Calm     92% 0 mm 109 W/m2
10:19 -1.6 °C -2.7 °C 1042.2 hPa Calm     92% 0 mm 118 W/m2
10:24 -1.3 °C -2.4 °C 1042.2 hPa Calm     92% 0.25 mm 125 W/m2
10:29 -0.9 °C -2.1 °C 1042.2 hPa Calm     92% 0.25 mm 123 W/m2
10:34 -0.6 °C -1.7 °C 1042.2 hPa Calm     92% 0.25 mm 132 W/m2
10:39 -0.2 °C -1.3 °C 1042.2 hPa Calm     92% 0.25 mm 137 W/m2
10:44 -0.2 °C -1.2 °C 1042.2 hPa Calm     92% 0.25 mm 139 W/m2
10:49 -0.1 °C -1.3 °C 1042.2 hPa Calm     91.8% 0.25 mm 130 W/m2
10:54 0 °C -1.3 °C 1042.2 hPa Calm     91% 0.25 mm 137 W/m2
10:59 0.3 °C -1.1 °C 1042.2 hPa Calm     91% 0.25 mm 142 W/m2
11:04 0.6 °C -0.7 °C 1042.2 hPa Calm     91% 0.25 mm 156 W/m2
11:09 0.8 °C -0.4 °C 1042.2 hPa Calm     91% 0.25 mm 162 W/m2
11:14 1.2 °C -0.2 °C 1042.2 hPa Calm     90.8% 0.25 mm 158 W/m2
11:19 1.2 °C -0.3 °C 1042.2 hPa Calm     90% 0.25 mm 162 W/m2
11:24 1.3 °C -0.2 °C 1042.2 hPa Calm     89.8% 0 mm 178 W/m2
11:29 1.4 °C -0.2 °C 1041.9 hPa Calm     89% 0 mm 165 W/m2
11:34 1.7 °C 0.1 °C 1041.9 hPa Calm     89% 0 mm 160 W/m2
11:39 1.9 °C 0.3 °C 1041.9 hPa Calm     88.6% 0 mm 206 W/m2
11:44 2.2 °C 0.4 °C 1041.9 hPa North 1.6 km/h 4.8 km/h 88% 0 mm 165 W/m2
11:49 2.2 °C 0.3 °C 1041.9 hPa North 1.9 km/h 6.4 km/h 87.4% 0 mm 163 W/m2
11:54 2.3 °C 0.4 °C 1041.5 hPa North 2.9 km/h 8 km/h 87% 0 mm 167 W/m2
11:59 2.4 °C 0.3 °C 1041.5 hPa NNW 4.7 km/h 9.7 km/h 86% 0 mm 169 W/m2
12:04 2.6 °C 0.4 °C 1041.5 hPa NNW 3.2 km/h 9.7 km/h 86% 0 mm 141 W/m2
12:09 2.7 °C 0.4 °C 1041.5 hPa NNW 1.4 km/h 6.4 km/h 85.2% 0 mm 134 W/m2
12:14 2.7 °C 0.4 °C 1041.5 hPa NNW 1.6 km/h 4.8 km/h 85% 0 mm 146 W/m2
12:19 2.8 °C 0.5 °C 1041.5 hPa NNW 0.8 km/h 4.8 km/h 85% 0 mm 125 W/m2
12:24 2.9 °C 0.7 °C 1041.5 hPa NNW 1.9 km/h 6.4 km/h 85% 0 mm 120 W/m2
12:29 3 °C 0.6 °C 1041.5 hPa NNW 2.3 km/h 6.4 km/h 84% 0 mm 116 W/m2
12:34 3.1 °C 0.7 °C 1041.5 hPa NNW 1.9 km/h 6.4 km/h 84% 0 mm 111 W/m2
12:39 3.1 °C 0.7 °C 1041.2 hPa NNW 2.9 km/h 6.4 km/h 84% 0 mm 104 W/m2
12:44 3.1 °C 0.7 °C 1041.2 hPa NNW 2.1 km/h 6.4 km/h 84% 0 mm 104 W/m2
12:49 3.2 °C 0.8 °C 1041.2 hPa NNW 2.6 km/h 6.4 km/h 84% 0 mm 97 W/m2
12:54 3.2 °C 0.8 °C 1041.2 hPa NNW 2.4 km/h 6.4 km/h 84% 0 mm 88 W/m2
12:59 3.3 °C 0.8 °C 1041.2 hPa NNW 2.7 km/h 6.4 km/h 83.4% 0 mm 84 W/m2
13:04 3.3 °C 0.8 °C 1041.2 hPa NNW 3.2 km/h 4.8 km/h 83.2% 0 mm 81 W/m2
13:09 3.3 °C 0.7 °C 1041.2 hPa NNW 2.3 km/h 6.4 km/h 83% 0 mm 77 W/m2
13:14 3.4 °C 0.8 °C 1041.2 hPa NNW 2.3 km/h 4.8 km/h 83% 0 mm 70 W/m2
13:19 3.5 °C 0.9 °C 1041.2 hPa NNW 1 km/h 4.8 km/h 83% 0 mm 69 W/m2
13:24 3.6 °C 1 °C 1041.2 hPa NNW 2.3 km/h 4.8 km/h 83% 0 mm 69 W/m2
13:29 3.6 °C 1 °C 1041.2 hPa NNW 3.1 km/h 6.4 km/h 83% 0 mm 65 W/m2
13:34 3.6 °C 1 °C 1040.9 hPa NNW 2.7 km/h 4.8 km/h 83% 0 mm 62 W/m2
13:39 3.6 °C 1 °C 1040.9 hPa NNW 2.6 km/h 6.4 km/h 83% 0 mm 58 W/m2
13:44 3.6 °C 1 °C 1040.9 hPa NNW 2.6 km/h 4.8 km/h 83% 0 mm 54 W/m2
13:49 3.6 °C 1 °C 1040.9 hPa NNW 3.2 km/h 6.4 km/h 83% 0 mm 53 W/m2
13:54 3.6 °C 1 °C 1040.9 hPa NNW 0.6 km/h 4.8 km/h 83% 0 mm 51 W/m2
13:59 3.6 °C 1 °C 1040.9 hPa Calm   3.2 km/h 83% 0 mm 49 W/m2
14:04 3.6 °C 1 °C 1040.9 hPa Calm     83% 0 mm 47 W/m2
14:08 3.6 °C 1 °C 1040.9 hPa Calm     83% 0 mm 44 W/m2
14:14 3.7 °C 1.1 °C 1040.9 hPa NNW 1 km/h 3.2 km/h 83% 0 mm 42 W/m2
14:19 3.7 °C 1.1 °C 1040.5 hPa Calm   3.2 km/h 83% 0 mm 40 W/m2
14:24 3.7 °C 1.1 °C 1040.5 hPa Calm     83% 0 mm 39 W/m2
14:29 3.7 °C 1.1 °C 1040.5 hPa Calm     83% 0 mm 35 W/m2
14:34 3.7 °C 1.1 °C 1040.5 hPa NNW 0.6 km/h 3.2 km/h 83% 0 mm 37 W/m2
14:39 3.8 °C 1.2 °C 1040.5 hPa NNW 1.3 km/h 4.8 km/h 83% 0 mm 37 W/m2
14:44 3.8 °C 1.2 °C 1040.5 hPa Calm     83% 0 mm 33 W/m2
14:49 3.8 °C 1.2 °C 1040.5 hPa Calm     83% 0 mm 30 W/m2
14:54 3.8 °C 1.3 °C 1040.5 hPa NNW 0.8 km/h 4.8 km/h 83.8% 0 mm 28 W/m2
14:59 3.8 °C 1.3 °C 1040.5 hPa NNW 0.3 km/h 3.2 km/h 84% 0 mm 26 W/m2
15:04 3.8 °C 1.3 °C 1040.5 hPa NNW 1 km/h 3.2 km/h 84% 0 mm 18 W/m2
15:09 3.8 °C 1.3 °C 1040.5 hPa NNW 0.8 km/h 3.2 km/h 84% 0 mm 18 W/m2
15:14 3.8 °C 1.3 °C 1040.5 hPa NNW 0.3 km/h 4.8 km/h 84% 0 mm 19 W/m2
15:19 3.8 °C 1.3 °C 1040.5 hPa NNW 0.6 km/h 3.2 km/h 84% 0 mm 21 W/m2
15:24 3.8 °C 1.3 °C 1040.2 hPa NNW 1.3 km/h 4.8 km/h 84% 0 mm 16 W/m2
15:29 3.8 °C 1.3 °C 1040.2 hPa NNW 2.6 km/h 4.8 km/h 84% 0 mm 16 W/m2
15:34 3.8 °C 1.3 °C 1040.2 hPa NNW 2.9 km/h 4.8 km/h 84% 0 mm 14 W/m2
15:39 3.8 °C 1.3 °C 1040.2 hPa NNW 3.4 km/h 6.4 km/h 84.4% 0 mm 14 W/m2
15:44 3.7 °C 1.4 °C 1040.2 hPa NNW 1.9 km/h 6.4 km/h 85% 0 mm 12 W/m2
15:49 3.7 °C 1.4 °C 1040.2 hPa NNW 3.9 km/h 4.8 km/h 85% 0 mm 11 W/m2
15:52 3.7 °C 1.4 °C 1040.2 hPa NNW 2.1 km/h 4.8 km/h 85% 0 mm 11 W/m2
15:59 3.7 °C 1.4 °C 1040.2 hPa NNW 2.4 km/h 4.8 km/h 85% 0 mm 11 W/m2
16:04 3.8 °C 1.4 °C 1040.2 hPa NNW 2.1 km/h 4.8 km/h 85% 0 mm 11 W/m2
16:09 3.8 °C 1.5 °C 1039.8 hPa NNW 0.3 km/h 4.8 km/h 85% 0 mm 11 W/m2
16:14 3.8 °C 1.5 °C 1039.8 hPa Calm     85% 0 mm 9 W/m2
16:19 3.8 °C 1.5 °C 1039.8 hPa Calm   1.6 km/h 85% 0 mm 7 W/m2
16:24 3.8 °C 1.5 °C 1039.8 hPa Calm     85% 0 mm 7 W/m2
16:29 3.7 °C 1.4 °C 1039.8 hPa Calm     85% 0 mm 5 W/m2
16:34 3.7 °C 1.4 °C 1039.8 hPa Calm     85% 0 mm 0 W/m2
16:39 3.7 °C 1.4 °C 1039.8 hPa Calm     85% 0 mm 0 W/m2
16:44 3.7 °C 1.6 °C 1039.8 hPa Calm     85.8% 0 mm 0 W/m2
16:49 3.7 °C 1.6 °C 1039.8 hPa Calm     86% 0 mm 0 W/m2
16:54 3.6 °C 1.5 °C 1039.8 hPa Calm     86% 0 mm 0 W/m2
16:59 3.6 °C 1.5 °C 1039.8 hPa Calm     86% 0 mm 0 W/m2
17:03 3.6 °C 1.5 °C 1039.5 hPa Calm     86% 0 mm 0 W/m2
17:09 3.6 °C 1.5 °C 1039.5 hPa Calm     86% 0 mm 0 W/m2
17:14 3.5 °C 1.4 °C 1039.5 hPa Calm     86% 0 mm 0 W/m2
17:19 3.5 °C 1.4 °C 1039.5 hPa Calm   1.6 km/h 86% 0 mm 0 W/m2
17:24 3.5 °C 1.4 °C 1039.5 hPa Calm     86% 0 mm 0 W/m2
17:29 3.4 °C 1.3 °C 1039.5 hPa Calm     86% 0 mm 0 W/m2
17:34 3.4 °C 1.3 °C 1039.5 hPa Calm     86.4% 0 mm 0 W/m2
17:39 3.3 °C 1.3 °C 1039.5 hPa NNW 0.6 km/h 3.2 km/h 86.2% 0 mm 0 W/m2
17:44 3.3 °C 1.3 °C 1039.5 hPa Calm   1.6 km/h 87% 0 mm 0 W/m2
17:49 3.3 °C 1.3 °C 1039.5 hPa Calm     87% 0 mm 0 W/m2
17:54 3.4 °C 1.4 °C 1039.5 hPa Calm     87% 0 mm 0 W/m2
17:59 3.4 °C 1.4 °C 1039.5 hPa Calm     87% 0 mm 0 W/m2
18:04 3.4 °C 1.4 °C 1039.5 hPa Calm     87% 0 mm 0 W/m2
18:09 3.4 °C 1.4 °C 1039.5 hPa Calm     87% 0 mm 0 W/m2
18:14 3.4 °C 1.4 °C 1039.5 hPa Calm     87% 0 mm 0 W/m2
18:19 3.4 °C 1.4 °C 1039.8 hPa Calm     87% 0 mm 0 W/m2
18:24 3.4 °C 1.6 °C 1039.8 hPa Calm     87.8% 0 mm 0 W/m2
18:29 3.4 °C 1.6 °C 1039.8 hPa Calm     88% 0 mm 0 W/m2
18:34 3.4 °C 1.6 °C 1039.8 hPa Calm     88% 0 mm 0 W/m2
18:37 3.4 °C 1.6 °C 1039.8 hPa Calm     88% 0 mm 0 W/m2
18:44 3.5 °C 1.7 °C 1039.8 hPa Calm     88% 0 mm 0 W/m2
18:49 3.6 °C 1.8 °C 1039.8 hPa Calm     88% 0 mm 0 W/m2
18:54 3.6 °C 1.8 °C 1039.8 hPa Calm     88% 0 mm 0 W/m2
18:59 3.5 °C 1.7 °C 1039.8 hPa Calm     88% 0 mm 0 W/m2
19:04 3.6 °C 1.8 °C 1039.8 hPa Calm     88% 0 mm 0 W/m2
19:09 3.6 °C 1.8 °C 1039.8 hPa Calm     88% 0 mm 0 W/m2
19:14 3.6 °C 1.8 °C 1039.8 hPa Calm     88% 0 mm 0 W/m2
19:19 3.6 °C 1.8 °C 1039.8 hPa Calm     88% 0 mm 0 W/m2
19:24 3.6 °C 1.8 °C 1039.8 hPa Calm     88% 0 mm 0 W/m2
19:29 3.6 °C 1.8 °C 1039.8 hPa Calm     88% 0 mm 0 W/m2
19:34 3.5 °C 1.7 °C 1039.8 hPa Calm     88% 0 mm 0 W/m2
19:39 3.5 °C 1.7 °C 1039.8 hPa Calm     88% 0 mm 0 W/m2
19:44 3.5 °C 1.7 °C 1039.8 hPa Calm   1.6 km/h 88% 0 mm 0 W/m2
19:49 3.5 °C 1.7 °C 1039.8 hPa Calm     88% 0 mm 0 W/m2
19:54 3.6 °C 1.9 °C 1039.8 hPa Calm     89% 0 mm 0 W/m2
19:59 3.6 °C 2 °C 1039.8 hPa Calm     89% 0 mm 0 W/m2
20:04 3.6 °C 2 °C 1039.8 hPa Calm     89% 0 mm 0 W/m2
20:09 3.6 °C 2 °C 1039.8 hPa Calm     89% 0 mm 0 W/m2
20:14 3.6 °C 2 °C 1039.8 hPa Calm     89% 0 mm 0 W/m2
20:19 3.6 °C 2 °C 1039.8 hPa Calm   1.6 km/h 89% 0 mm 0 W/m2
20:24 3.6 °C 2 °C 1039.8 hPa Calm   1.6 km/h 89% 0 mm 0 W/m2
20:29 3.6 °C 2 °C 1039.8 hPa Calm     89% 0 mm 0 W/m2
20:34 3.6 °C 2 °C 1039.8 hPa Calm     89% 0 mm 0 W/m2
20:39 3.6 °C 1.9 °C 1039.8 hPa Calm     89% 0 mm 0 W/m2
20:44 3.6 °C 1.9 °C 1039.8 hPa Calm     89% 0 mm 0 W/m2
20:49 3.5 °C 1.9 °C 1039.8 hPa Calm     89% 0 mm 0 W/m2
20:54 3.6 °C 2 °C 1039.8 hPa Calm     89% 0 mm 0 W/m2
20:59 3.6 °C 2 °C 1039.8 hPa Calm     89% 0 mm 0 W/m2
21:04 3.6 °C 2 °C 1039.8 hPa Calm   1.6 km/h 89% 0 mm 0 W/m2
21:09 3.6 °C 2 °C 1039.8 hPa Calm   1.6 km/h 89% 0 mm 0 W/m2
21:14 3.6 °C 2 °C 1039.8 hPa Calm     89% 0 mm 0 W/m2
21:19 3.6 °C 2 °C 1039.8 hPa Calm     89% 0 mm 0 W/m2
21:24 3.6 °C 2 °C 1039.8 hPa Calm     89% 0 mm 0 W/m2
21:29 3.6 °C 2 °C 1039.8 hPa Calm     89% 0 mm 0 W/m2
21:34 3.6 °C 2 °C 1039.8 hPa Calm     89% 0 mm 0 W/m2
21:39 3.6 °C 2 °C 1039.8 hPa Calm     89% 0 mm 0 W/m2
21:44 3.7 °C 2.1 °C 1039.8 hPa Calm     89% 0 mm 0 W/m2
21:49 3.6 °C 2 °C 1039.8 hPa Calm     89% 0 mm 0 W/m2
21:54 3.6 °C 2 °C 1039.8 hPa Calm     89% 0 mm 0 W/m2
21:59 3.6 °C 2 °C 1039.8 hPa Calm     89% 0 mm 0 W/m2
22:04 3.6 °C 2 °C 1039.8 hPa Calm     89% 0 mm 0 W/m2
22:09 3.6 °C 2 °C 1039.8 hPa Calm     89% 0 mm 0 W/m2
22:14 3.6 °C 2 °C 1039.8 hPa Calm     89% 0 mm 0 W/m2
22:19 3.6 °C 2 °C 1039.8 hPa Calm     89% 0 mm 0 W/m2
22:24 3.6 °C 2 °C 1039.8 hPa Calm     89% 0 mm 0 W/m2
22:29 3.6 °C 2 °C 1039.8 hPa Calm     89% 0 mm 0 W/m2
22:34 3.6 °C 2 °C 1039.8 hPa Calm     89% 0 mm 0 W/m2
22:39 3.5 °C 1.9 °C 1039.8 hPa Calm     89.4% 0 mm 0 W/m2
22:44 3.6 °C 2.1 °C 1039.8 hPa Calm     90% 0 mm 0 W/m2
22:49 3.6 °C 2.1 °C 1039.8 hPa Calm     90% 0 mm 0 W/m2
22:54 3.6 °C 2.1 °C 1039.8 hPa Calm     90% 0 mm 0 W/m2
22:59 3.6 °C 2.1 °C 1039.8 hPa Calm     90% 0 mm 0 W/m2
23:03 3.6 °C 2.1 °C 1039.8 hPa Calm     90% 0 mm 0 W/m2
23:09 3.5 °C 2 °C 1039.8 hPa Calm     90% 0 mm 0 W/m2
23:14 3.5 °C 2 °C 1039.8 hPa Calm     90% 0 mm 0 W/m2
23:19 3.5 °C 2 °C 1039.8 hPa Calm     90% 0 mm 0 W/m2
23:24 3.5 °C 2 °C 1039.8 hPa Calm     90% 0 mm 0 W/m2
23:29 3.6 °C 2.1 °C 1039.8 hPa Calm     90% 0 mm 0 W/m2
23:34 3.6 °C 2.1 °C 1039.8 hPa Calm     90% 0 mm 0 W/m2
23:39 3.6 °C 2.1 °C 1039.8 hPa Calm     90% 0 mm 0 W/m2
23:44 3.6 °C 2.1 °C 1039.8 hPa Calm     90% 0 mm 0 W/m2
23:49 3.6 °C 2.1 °C 1039.8 hPa Calm     90% 0 mm 0 W/m2
23:54 3.6 °C 2.1 °C 1039.8 hPa Calm     90% 0 mm 0 W/m2
23:59 3.6 °C 2.1 °C 1039.8 hPa Calm     90% 0 mm 0 W/m2
Bath Spa Weather
Compliments of Weather Underground - 2 mb